Time;durP1;ratioP1;P1;durP2;ratioP2;P2;SDS_P1;SDS_P2;PMS_P1;PMS_P2;Temp;Humidity;BMP_temperature;BMP_pressure;BME280_temperature;BME280_humidity;BME280_pressure;Samples;Min_cycle;Max_cycle;Signal;HPM_P1;HPM_P2
2021/11/28 00:00:34;;;;;;;11.18;8.70;;;14.70;78.10;;;;;;4183954;28;20079;-63
2021/11/28 00:02:57;;;;;;;12.77;8.95;;;14.70;78.20;;;;;;4182171;28;20061;-64
2021/11/28 00:05:22;;;;;;;9.70;8.18;;;14.70;78.30;;;;;;4176914;28;20060;-63
2021/11/28 00:08:06;;;;;;;12.55;8.55;;;14.70;78.40;;;;;;4171457;28;20049;-63
2021/11/28 00:10:42;;;;;;;12.10;8.52;;;14.70;78.60;;;;;;4169851;28;20140;-63
2021/11/28 00:13:06;;;;;;;10.05;8.18;;;14.70;79.70;;;;;;4176765;28;20052;-63
2021/11/28 00:15:28;;;;;;;9.77;8.23;;;14.60;79.60;;;;;;4184375;28;20068;-63
2021/11/28 00:17:51;;;;;;;13.15;8.88;;;14.60;79.40;;;;;;4188580;28;20052;-63
2021/11/28 00:20:16;;;;;;;10.02;8.80;;;14.70;79.70;;;;;;4192985;28;20048;-63
2021/11/28 00:22:39;;;;;;;10.90;8.60;;;14.80;79.70;;;;;;4182519;28;20044;-63
2021/11/28 00:25:01;;;;;;;10.88;8.57;;;14.80;79.50;;;;;;4177488;28;20057;-63
2021/11/28 00:27:23;;;;;;;12.45;8.23;;;14.90;80.30;;;;;;4176358;28;20056;-63
2021/11/28 00:29:45;;;;;;;9.82;8.50;;;15.00;79.20;;;;;;4178051;28;20091;-63
2021/11/28 00:32:08;;;;;;;10.68;8.40;;;15.10;78.90;;;;;;4193020;28;20135;-63
2021/11/28 00:34:30;;;;;;;11.27;9.43;;;15.10;78.60;;;;;;4192331;28;20052;-62
2021/11/28 00:36:54;;;;;;;16.02;8.77;;;15.10;78.20;;;;;;4177230;28;20131;-64
2021/11/28 00:39:16;;;;;;;11.18;8.00;;;15.20;78.10;;;;;;4188300;28;20076;-63
2021/11/28 00:41:38;;;;;;;9.68;8.45;;;15.20;77.90;;;;;;4176270;28;20052;-63
2021/11/28 00:44:20;;;;;;;10.38;9.07;;;15.20;77.80;;;;;;4175937;28;20126;-63
2021/11/28 00:46:42;;;;;;;10.23;8.95;;;15.20;77.70;;;;;;4176214;28;20183;-63
2021/11/28 00:49:11;;;;;;;12.57;9.20;;;15.30;77.60;;;;;;4161032;28;20499;-63
2021/11/28 00:51:48;;;;;;;16.95;9.65;;;15.20;77.70;;;;;;4176145;28;20426;-63
2021/11/28 00:54:11;;;;;;;11.48;8.98;;;15.30;77.70;;;;;;4161374;28;20049;-63
2021/11/28 00:56:33;;;;;;;17.40;10.13;;;15.30;77.50;;;;;;4176203;28;20073;-63
2021/11/28 00:58:55;;;;;;;11.93;10.13;;;15.30;77.20;;;;;;4160705;28;20128;-63
2021/11/28 01:01:18;;;;;;;11.77;9.90;;;15.30;77.30;;;;;;4175677;28;20053;-63
2021/11/28 01:03:40;;;;;;;11.98;9.60;;;15.30;77.20;;;;;;4169434;28;20051;-63
2021/11/28 01:06:03;;;;;;;12.13;9.90;;;15.30;77.20;;;;;;4190267;28;20131;-63
2021/11/28 01:08:25;;;;;;;10.63;9.45;;;15.30;77.10;;;;;;4192308;28;20040;-63
2021/11/28 01:10:50;;;;;;;10.80;9.52;;;15.30;77.00;;;;;;4192076;28;20052;-63
2021/11/28 01:13:12;;;;;;;14.80;10.13;;;15.30;76.80;;;;;;4190840;28;20121;-63
2021/11/28 01:15:34;;;;;;;12.02;10.43;;;15.30;76.90;;;;;;4176922;28;20116;-63
2021/11/28 01:17:56;;;;;;;12.13;9.88;;;15.30;76.90;;;;;;4177291;28;20064;-64
2021/11/28 01:20:19;;;;;;;12.85;10.57;;;15.30;77.10;;;;;;4166956;28;20527;-63
2021/11/28 01:22:41;;;;;;;10.75;9.30;;;15.30;78.40;;;;;;4175469;28;20049;-63
2021/11/28 01:25:05;;;;;;;11.57;9.90;;;15.30;77.70;;;;;;4183774;28;20384;-64
2021/11/28 01:27:29;;;;;;;13.18;10.07;;;15.30;77.30;;;;;;4176273;28;20605;-63
2021/11/28 01:29:51;;;;;;;13.15;10.63;;;15.40;77.20;;;;;;4185155;28;20048;-63
2021/11/28 01:32:14;;;;;;;12.10;10.15;;;15.30;77.00;;;;;;4159912;28;20042;-63
2021/11/28 01:34:36;;;;;;;11.07;9.68;;;15.40;77.10;;;;;;4160114;28;20052;-63
2021/11/28 01:37:00;;;;;;;12.90;10.50;;;15.40;78.10;;;;;;4160282;28;20049;-63
2021/11/28 01:39:25;;;;;;;14.05;10.52;;;15.40;76.90;;;;;;4164496;28;20127;-62
2021/11/28 01:41:48;;;;;;;11.90;10.50;;;15.40;76.70;;;;;;4160474;28;20452;-63
2021/11/28 01:44:12;;;;;;;16.60;10.73;;;15.50;76.60;;;;;;4163774;28;20055;-63
2021/11/28 01:46:34;;;;;;;12.55;11.20;;;15.40;76.50;;;;;;4192047;28;20113;-62
2021/11/28 01:48:57;;;;;;;10.80;9.70;;;15.50;76.40;;;;;;4190404;28;20476;-63
2021/11/28 01:51:22;;;;;;;13.18;10.00;;;15.40;76.40;;;;;;4160373;28;20053;-63
2021/11/28 01:53:45;;;;;;;13.63;10.35;;;15.40;76.70;;;;;;4154827;28;20042;-63
2021/11/28 01:56:07;;;;;;;12.15;10.48;;;15.40;76.60;;;;;;4171635;28;20048;-63
2021/11/28 01:58:31;;;;;;;13.65;9.93;;;15.40;76.60;;;;;;4176974;28;20075;-63
2021/11/28 02:00:58;;;;;;;12.95;10.85;;;15.40;76.60;;;;;;4160289;28;20135;-63
2021/11/28 02:03:21;;;;;;;13.13;10.65;;;15.40;76.60;;;;;;4160283;28;20042;-63
2021/11/28 02:05:48;;;;;;;12.38;10.15;;;15.30;76.90;;;;;;4160076;28;20052;-63
2021/11/28 02:08:10;;;;;;;11.43;10.23;;;15.40;77.10;;;;;;4160583;28;20051;-63
2021/11/28 02:10:32;;;;;;;12.30;10.32;;;15.40;77.00;;;;;;4160684;28;20050;-63
2021/11/28 02:12:58;;;;;;;11.88;9.82;;;15.50;76.70;;;;;;4173452;28;20049;-63
2021/11/28 02:15:21;;;;;;;14.23;10.43;;;15.60;76.40;;;;;;4192116;28;20147;-63
2021/11/28 02:17:50;;;;;;;12.50;10.73;;;15.50;76.00;;;;;;4169938;28;20485;-63
2021/11/28 02:20:14;;;;;;;14.73;10.00;;;15.60;75.90;;;;;;4159580;28;20033;-63
2021/11/28 02:22:40;;;;;;;11.57;10.02;;;15.60;76.20;;;;;;4175445;28;20522;-63
2021/11/28 02:25:04;;;;;;;12.68;10.40;;;15.60;76.00;;;;;;4161325;28;25082;-63
2021/11/28 02:27:26;;;;;;;12.82;10.93;;;15.60;75.70;;;;;;4160182;28;20045;-63
2021/11/28 02:29:49;;;;;;;13.98;10.63;;;15.70;75.60;;;;;;4174768;28;20057;-63
2021/11/28 02:32:12;;;;;;;12.50;10.23;;;15.70;76.30;;;;;;4175198;28;20408;-62
2021/11/28 02:34:34;;;;;;;13.45;10.00;;;15.70;75.40;;;;;;4160021;28;20060;-62
2021/11/28 02:36:56;;;;;;;13.15;11.35;;;15.70;75.50;;;;;;4160090;28;20069;-63
2021/11/28 02:39:20;;;;;;;13.65;11.45;;;15.70;75.60;;;;;;4161500;28;20077;-62
2021/11/28 02:41:42;;;;;;;13.95;11.07;;;15.60;75.40;;;;;;4174469;28;20048;-63
2021/11/28 02:44:05;;;;;;;12.40;10.85;;;15.60;76.40;;;;;;4159811;28;20104;-63
2021/11/28 02:46:30;;;;;;;13.02;10.35;;;15.60;75.60;;;;;;4160195;28;20993;-64
2021/11/28 02:48:52;;;;;;;12.00;10.65;;;15.60;75.70;;;;;;4159569;28;20049;-65
2021/11/28 02:51:14;;;;;;;13.45;11.38;;;15.50;75.70;;;;;;4175013;28;20052;-64
2021/11/28 02:53:36;;;;;;;12.20;10.90;;;15.50;75.80;;;;;;4175946;28;20128;-65
2021/11/28 02:56:03;;;;;;;14.18;11.30;;;15.50;76.40;;;;;;4179359;28;20056;-64
2021/11/28 02:58:26;;;;;;;12.68;10.82;;;15.50;76.30;;;;;;4174965;28;20392;-65
2021/11/28 03:00:51;;;;;;;12.32;10.60;;;15.60;76.10;;;;;;4161108;28;20077;-64
2021/11/28 03:03:14;;;;;;;13.25;10.88;;;15.60;75.90;;;;;;4162910;28;20049;-65
2021/11/28 03:05:37;;;;;;;13.38;11.05;;;15.60;75.70;;;;;;4170316;28;20044;-65
2021/11/28 03:07:59;;;;;;;13.80;11.32;;;15.70;75.50;;;;;;4179183;28;20150;-65
2021/11/28 03:10:37;;;;;;;15.57;11.65;;;15.60;75.10;;;;;;4191700;28;20492;-66
2021/11/28 03:13:01;;;;;;;13.38;10.77;;;15.60;74.60;;;;;;4176650;28;20484;-66
2021/11/28 03:15:23;;;;;;;15.40;11.55;;;15.50;75.50;;;;;;4162284;28;20071;-66
2021/11/28 03:17:52;;;;;;;13.70;11.30;;;15.50;75.70;;;;;;4162386;28;20053;-66
2021/11/28 03:20:15;;;;;;;13.73;10.73;;;15.50;75.70;;;;;;4162211;28;20112;-66
2021/11/28 03:22:37;;;;;;;12.25;10.30;;;15.50;75.60;;;;;;4161974;28;20212;-66
2021/11/28 03:25:09;;;;;;;12.18;10.05;;;15.50;75.70;;;;;;4176861;28;20041;-66
2021/11/28 03:27:30;;;;;;;14.15;11.15;;;15.40;75.20;;;;;;4161579;28;20041;-64
2021/11/28 03:29:54;;;;;;;12.65;10.48;;;15.40;75.90;;;;;;4172376;28;20056;-65
2021/11/28 03:32:34;;;;;;;13.60;11.50;;;15.40;75.80;;;;;;4177068;28;20056;-65
2021/11/28 03:35:19;;;;;;;15.20;11.48;;;15.30;76.00;;;;;;4162040;28;20045;-65
2021/11/28 03:37:41;;;;;;;15.45;11.38;;;15.30;76.30;;;;;;4171467;28;20056;-65
2021/11/28 03:40:07;;;;;;;13.10;11.07;;;15.20;76.40;;;;;;4178780;28;20061;-65
2021/11/28 03:42:30;;;;;;;13.30;11.45;;;15.20;76.70;;;;;;4178771;28;20060;-65
2021/11/28 03:44:53;;;;;;;14.60;11.80;;;15.30;76.90;;;;;;4178401;28;20057;-65
2021/11/28 03:47:16;;;;;;;16.25;11.95;;;15.50;76.30;;;;;;4193777;28;20125;-65
2021/11/28 03:49:41;;;;;;;14.38;11.77;;;15.60;76.50;;;;;;4170634;28;20521;-65
2021/11/28 03:52:04;;;;;;;14.30;10.88;;;15.60;76.10;;;;;;4161824;28;20166;-65
2021/11/28 03:54:27;;;;;;;13.68;11.93;;;15.70;74.80;;;;;;4161544;28;20088;-64
2021/11/28 03:56:49;;;;;;;14.65;11.30;;;15.70;75.30;;;;;;4177223;28;20400;-65
2021/11/28 03:59:13;;;;;;;14.25;11.93;;;15.70;74.20;;;;;;4176773;28;20041;-65
2021/11/28 04:01:38;;;;;;;15.48;11.65;;;15.70;74.30;;;;;;4161828;28;20045;-64
2021/11/28 04:03:59;;;;;;;16.23;11.93;;;15.60;74.30;;;;;;4176957;28;20045;-65
2021/11/28 04:06:41;;;;;;;14.48;11.95;;;15.60;74.60;;;;;;4176767;28;20476;-64
2021/11/28 04:09:03;;;;;;;13.70;11.77;;;15.60;74.80;;;;;;4176902;28;20543;-64
2021/11/28 04:11:26;;;;;;;14.32;11.25;;;15.70;74.50;;;;;;4161355;28;20068;-64
2021/11/28 04:13:49;;;;;;;13.70;11.32;;;15.70;75.20;;;;;;4160966;28;20052;-64
2021/11/28 04:16:13;;;;;;;16.52;12.85;;;15.70;74.30;;;;;;4165551;28;20045;-64
2021/11/28 04:18:36;;;;;;;16.50;11.63;;;15.70;74.40;;;;;;4176651;28;20053;-65
2021/11/28 04:21:02;;;;;;;16.17;12.20;;;15.80;74.20;;;;;;4161601;28;20045;-65
2021/11/28 04:23:26;;;;;;;16.27;13.13;;;15.90;74.00;;;;;;4153622;28;20132;-65
2021/11/28 04:25:48;;;;;;;17.67;12.90;;;15.90;73.70;;;;;;4175422;28;20060;-65
2021/11/28 04:28:11;;;;;;;16.67;13.20;;;16.00;74.10;;;;;;4167768;28;20110;-65
2021/11/28 04:30:34;;;;;;;15.15;12.35;;;16.00;73.00;;;;;;4178173;28;20065;-64
2021/11/28 04:32:57;;;;;;;15.63;12.07;;;16.00;72.80;;;;;;4177852;28;20071;-65
2021/11/28 04:35:20;;;;;;;18.30;13.18;;;16.00;73.00;;;;;;4177720;28;20057;-65
2021/11/28 04:37:42;;;;;;;15.20;12.52;;;16.00;73.10;;;;;;4170440;28;20680;-66
2021/11/28 04:40:07;;;;;;;15.23;12.65;;;16.10;72.80;;;;;;4177790;28;20048;-65
2021/11/28 04:42:32;;;;;;;17.92;13.45;;;16.20;72.10;;;;;;4170551;28;20069;-65
2021/11/28 04:44:56;;;;;;;16.92;13.40;;;16.30;71.80;;;;;;4161461;28;20042;-65
2021/11/28 04:47:19;;;;;;;15.60;12.45;;;16.40;71.30;;;;;;4184853;28;20048;-65
2021/11/28 04:49:57;;;;;;;15.63;13.10;;;16.30;71.30;;;;;;4177552;28;20561;-65
2021/11/28 04:52:21;;;;;;;15.70;14.00;;;16.30;71.30;;;;;;4177977;28;20079;-62
2021/11/28 04:54:44;;;;;;;17.90;13.30;;;16.30;71.50;;;;;;4171264;28;20045;-62
2021/11/28 04:57:09;;;;;;;17.05;13.77;;;16.30;71.50;;;;;;4183173;28;20047;-62
2021/11/28 04:59:31;;;;;;;17.70;14.40;;;16.20;71.40;;;;;;4169933;28;20472;-62
2021/11/28 05:01:54;;;;;;;15.93;13.45;;;16.20;71.60;;;;;;4177309;28;20103;-62
2021/11/28 05:04:19;;;;;;;17.52;13.10;;;16.20;71.80;;;;;;4177362;28;20053;-62
2021/11/28 05:06:41;;;;;;;15.10;13.00;;;16.20;72.00;;;;;;4192620;28;20048;-62
2021/11/28 05:09:08;;;;;;;16.63;12.82;;;16.10;71.80;;;;;;4185820;28;20151;-62
2021/11/28 05:11:29;;;;;;;16.20;13.40;;;16.10;71.90;;;;;;4175925;28;20045;-62
2021/11/28 05:13:53;;;;;;;16.83;13.80;;;16.10;72.10;;;;;;4176002;28;20064;-62
2021/11/28 05:16:15;;;;;;;15.50;12.18;;;16.10;72.20;;;;;;4171510;28;20056;-62
2021/11/28 05:19:04;;;;;;;16.25;12.57;;;16.10;72.20;;;;;;4174273;28;20617;-62
2021/11/28 05:21:36;;;;;;;18.40;13.65;;;16.10;71.90;;;;;;4164483;28;20416;-62
2021/11/28 05:23:58;;;;;;;16.60;13.13;;;16.20;71.80;;;;;;4159837;28;20056;-62
2021/11/28 05:26:23;;;;;;;18.02;13.50;;;16.20;71.90;;;;;;4161446;28;20049;-63
2021/11/28 05:28:46;;;;;;;15.88;12.88;;;16.20;71.70;;;;;;4160522;28;20064;-63
2021/11/28 05:31:11;;;;;;;15.65;12.93;;;16.30;71.40;;;;;;4160365;28;20602;-62
2021/11/28 05:33:52;;;;;;;16.08;12.70;;;16.40;71.20;;;;;;4191082;28;20052;-62
2021/11/28 05:36:46;;;;;;;17.75;13.27;;;16.50;70.60;;;;;;4141327;28;20509;-62
2021/11/28 05:39:09;;;;;;;17.05;12.80;;;16.50;70.30;;;;;;4160406;28;20103;-62
2021/11/28 05:41:32;;;;;;;15.38;12.30;;;16.50;70.00;;;;;;4160873;28;20049;-62
2021/11/28 05:43:54;;;;;;;17.35;12.85;;;16.50;70.90;;;;;;4176161;28;20115;-62
2021/11/28 05:46:20;;;;;;;30.55;13.18;;;16.40;70.20;;;;;;4160175;28;20045;-62
2021/11/28 05:49:10;;;;;;;32.08;12.68;;;16.40;71.40;;;;;;4159961;28;20053;-63
2021/11/28 05:52:05;;;;;;;50.72;12.60;;;16.30;71.70;;;;;;4187126;28;20057;-62
2021/11/28 05:54:27;;;;;;;51.45;12.95;;;16.20;70.70;;;;;;4175011;28;20040;-63
2021/11/28 05:56:51;;;;;;;38.13;11.80;;;16.20;70.90;;;;;;4159717;28;20053;-63
2021/11/28 05:59:14;;;;;;;40.33;10.93;;;16.10;71.10;;;;;;4160114;28;20061;-63
2021/11/28 06:01:37;;;;;;;36.95;10.40;;;16.10;72.20;;;;;;4159942;28;20461;-62
2021/11/28 06:04:00;;;;;;;39.08;10.45;;;16.10;71.30;;;;;;4172792;28;20055;-63
2021/11/28 06:06:59;;;;;;;37.63;10.43;;;16.10;71.30;;;;;;4191410;28;20376;-63
2021/11/28 06:09:25;;;;;;;39.78;10.13;;;16.00;71.50;;;;;;4166729;28;20471;-63
2021/11/28 06:11:47;;;;;;;26.40;9.57;;;16.00;71.60;;;;;;4173813;28;20170;-63
2021/11/28 06:14:11;;;;;;;41.40;10.20;;;15.90;71.90;;;;;;4174923;28;20049;-63
2021/11/28 06:16:56;;;;;;;18.70;8.90;;;16.00;72.50;;;;;;4174478;28;20411;-62
2021/11/28 06:19:38;;;;;;;37.10;9.40;;;16.00;72.30;;;;;;4174417;28;20130;-63
2021/11/28 06:22:26;;;;;;;39.67;9.75;;;16.10;71.70;;;;;;4174640;28;20110;-62
2021/11/28 06:24:51;;;;;;;56.45;10.85;;;16.20;71.20;;;;;;4160263;28;20053;-63
2021/11/28 06:27:24;;;;;;;44.85;9.52;;;16.20;70.90;;;;;;4160012;28;20041;-63
2021/11/28 06:29:51;;;;;;;51.03;10.45;;;16.20;70.70;;;;;;4174629;28;20053;-63
2021/11/28 06:32:23;;;;;;;66.85;11.15;;;16.10;70.70;;;;;;4160059;28;20072;-63
2021/11/28 06:35:08;;;;;;;42.83;9.85;;;16.10;71.20;;;;;;4173356;28;20056;-63
2021/11/28 06:37:51;;;;;;;33.85;9.98;;;16.10;71.50;;;;;;4177850;28;20407;-63
2021/11/28 06:40:31;;;;;;;30.70;10.23;;;16.10;71.60;;;;;;4177759;28;20060;-62
2021/11/28 06:42:58;;;;;;;36.65;9.27;;;16.10;71.30;;;;;;4172280;28;20048;-63
2021/11/28 06:45:22;;;;;;;32.20;9.48;;;16.20;71.20;;;;;;4163104;28;20128;-62
2021/11/28 06:47:45;;;;;;;19.67;8.88;;;16.20;71.10;;;;;;4157351;28;20077;-62
2021/11/28 06:50:08;;;;;;;15.63;9.30;;;16.20;71.00;;;;;;4177267;28;20077;-62
2021/11/28 06:52:49;;;;;;;15.23;8.00;;;16.20;70.90;;;;;;4172967;28;20048;-64
2021/11/28 06:55:26;;;;;;;12.13;9.05;;;16.20;71.00;;;;;;4178155;28;20052;-65
2021/11/28 06:58:05;;;;;;;11.50;8.27;;;16.20;71.20;;;;;;4162801;28;20045;-64
2021/11/28 07:00:29;;;;;;;10.27;8.07;;;16.10;72.40;;;;;;4162974;28;20045;-64
2021/11/28 07:02:52;;;;;;;9.93;7.95;;;16.10;71.50;;;;;;4163214;28;20049;-64
2021/11/28 07:05:37;;;;;;;9.43;8.18;;;16.10;71.70;;;;;;4176866;28;20099;-64
2021/11/28 07:07:59;;;;;;;9.10;8.20;;;16.20;71.40;;;;;;4162963;28;20056;-64
2021/11/28 07:10:22;;;;;;;10.88;8.77;;;16.30;71.80;;;;;;4162258;28;20096;-65
2021/11/28 07:12:44;;;;;;;9.77;8.77;;;16.40;70.60;;;;;;4162263;28;20460;-64
2021/11/28 07:15:14;;;;;;;9.35;8.43;;;16.40;70.30;;;;;;4162103;28;20050;-64
2021/11/28 07:17:37;;;;;;;9.38;8.48;;;16.30;70.20;;;;;;4162755;28;20053;-64
2021/11/28 07:20:02;;;;;;;9.48;8.52;;;16.30;71.20;;;;;;4162641;28;20060;-64
2021/11/28 07:22:41;;;;;;;9.55;8.55;;;16.30;70.50;;;;;;4162459;28;20519;-64
2021/11/28 07:25:04;;;;;;;9.18;7.60;;;16.20;70.40;;;;;;4162495;28;20045;-64
2021/11/28 07:27:27;;;;;;;9.95;7.70;;;16.20;70.50;;;;;;4162554;28;20055;-65
2021/11/28 07:29:49;;;;;;;9.77;8.40;;;16.10;70.50;;;;;;4162180;28;20050;-65
2021/11/28 07:32:11;;;;;;;9.55;7.75;;;16.10;70.70;;;;;;4171374;28;20053;-65
2021/11/28 07:35:01;;;;;;;8.35;7.47;;;16.00;70.90;;;;;;4193761;28;20049;-64
2021/11/28 07:37:46;;;;;;;8.18;7.38;;;15.90;72.10;;;;;;4193521;28;20419;-66
2021/11/28 07:40:10;;;;;;;8.68;7.88;;;15.80;71.50;;;;;;4193863;28;20050;-65
2021/11/28 07:42:37;;;;;;;8.10;7.38;;;15.80;71.50;;;;;;4178611;28;20097;-65
2021/11/28 07:45:23;;;;;;;9.00;7.53;;;15.70;71.20;;;;;;4149793;28;20048;-65
2021/11/28 07:48:03;;;;;;;7.93;7.10;;;15.60;71.90;;;;;;4173470;28;20064;-65
2021/11/28 07:50:39;;;;;;;7.75;6.47;;;15.60;72.40;;;;;;4161959;28;20393;-65
2021/11/28 07:53:01;;;;;;;8.32;7.25;;;15.60;73.90;;;;;;4173678;28;20132;-65
2021/11/28 07:55:24;;;;;;;8.98;7.75;;;15.60;74.50;;;;;;4174622;28;20148;-65
2021/11/28 07:57:51;;;;;;;7.85;7.15;;;15.60;75.00;;;;;;4176708;28;20195;-65
2021/11/28 08:00:34;;;;;;;12.57;7.85;;;15.80;75.40;;;;;;4176851;28;20697;-66
2021/11/28 08:03:06;;;;;;;7.53;6.80;;;15.90;75.00;;;;;;4168801;28;20059;-66
2021/11/28 08:05:48;;;;;;;7.32;6.47;;;16.00;74.20;;;;;;4176958;28;20057;-66
2021/11/28 08:08:20;;;;;;;8.40;7.20;;;16.10;73.40;;;;;;4161829;28;20049;-66
2021/11/28 08:11:03;;;;;;;8.02;7.22;;;16.10;73.60;;;;;;4161724;28;20054;-67
2021/11/28 08:13:26;;;;;;;8.27;7.43;;;16.10;72.80;;;;;;4177830;28;20049;-66
2021/11/28 08:15:49;;;;;;;8.48;7.68;;;16.10;71.80;;;;;;4177037;28;20056;-66
2021/11/28 08:18:11;;;;;;;8.05;7.07;;;16.10;72.10;;;;;;4177053;28;20057;-66
2021/11/28 08:20:33;;;;;;;8.73;7.47;;;16.00;72.10;;;;;;4177128;28;20052;-66
2021/11/28 08:22:57;;;;;;;8.05;7.25;;;16.10;72.10;;;;;;4188339;28;20757;-65
2021/11/28 08:25:19;;;;;;;9.40;7.10;;;16.10;71.80;;;;;;4176907;28;20049;-65
2021/11/28 08:27:41;;;;;;;8.77;7.45;;;16.20;71.40;;;;;;4179187;28;20056;-65
2021/11/28 08:30:10;;;;;;;7.68;6.65;;;16.20;70.90;;;;;;4192719;28;20066;-65
2021/11/28 08:33:05;;;;;;;7.55;6.75;;;16.20;70.60;;;;;;4182237;28;20068;-65
2021/11/28 08:35:47;;;;;;;6.55;5.95;;;16.20;70.50;;;;;;4192701;28;20056;-65
2021/11/28 08:38:11;;;;;;;5.28;4.78;;;16.20;70.30;;;;;;4177797;28;20119;-66
2021/11/28 08:40:36;;;;;;;5.30;4.80;;;16.10;70.40;;;;;;4192932;28;20472;-70
2021/11/28 08:42:58;;;;;;;5.68;4.72;;;16.10;70.70;;;;;;4179170;28;20557;-66
2021/11/28 08:45:21;;;;;;;5.20;4.80;;;16.10;70.60;;;;;;4183189;28;20045;-62
2021/11/28 08:47:44;;;;;;;4.65;4.25;;;16.20;70.20;;;;;;4174224;28;20480;-66
2021/11/28 08:50:09;;;;;;;4.50;3.95;;;16.20;70.00;;;;;;4174580;28;20052;-66
2021/11/28 08:52:31;;;;;;;4.03;3.72;;;16.20;69.80;;;;;;4174221;28;20102;-64
2021/11/28 08:54:57;;;;;;;4.25;3.85;;;16.20;69.60;;;;;;4175364;28;20049;-66
2021/11/28 08:57:20;;;;;;;4.05;3.58;;;16.20;69.60;;;;;;4179883;28;20068;-66
2021/11/28 08:59:43;;;;;;;3.50;3.20;;;16.20;70.00;;;;;;4176979;28;20037;-65
2021/11/28 09:02:05;;;;;;;7.30;3.53;;;16.20;69.70;;;;;;4174419;28;20056;-65
2021/11/28 09:04:28;;;;;;;3.75;3.40;;;16.20;69.40;;;;;;4165996;28;20446;-65
2021/11/28 09:06:50;;;;;;;4.00;3.30;;;16.20;69.30;;;;;;4175383;28;20107;-64
2021/11/28 09:09:12;;;;;;;2.85;2.60;;;16.20;69.70;;;;;;4187998;28;20045;-64
2021/11/28 09:11:36;;;;;;;4.07;3.30;;;16.10;69.80;;;;;;4169247;28;20091;-64
2021/11/28 09:13:58;;;;;;;3.50;3.22;;;16.10;69.80;;;;;;4167878;28;20491;-65
2021/11/28 09:16:20;;;;;;;2.70;2.50;;;16.10;69.90;;;;;;4181957;28;20521;-63
2021/11/28 09:18:46;;;;;;;2.75;2.45;;;16.10;70.00;;;;;;4187521;28;20104;-64
2021/11/28 09:21:08;;;;;;;4.80;2.35;;;16.10;70.40;;;;;;4176445;28;20527;-64
2021/11/28 09:26:10;;;;;;;2.25;2.15;;;16.10;70.80;;;;;;4173283;28;20048;-64
2021/11/28 09:28:33;;;;;;;3.25;2.50;;;16.00;71.20;;;;;;4189246;28;20052;-64
2021/11/28 09:30:55;;;;;;;2.15;1.95;;;16.00;71.60;;;;;;4184165;28;20075;-65
2021/11/28 09:33:17;;;;;;;2.60;1.85;;;16.00;71.60;;;;;;4177605;28;20049;-65
2021/11/28 09:35:42;;;;;;;2.25;1.80;;;16.00;71.10;;;;;;4189058;28;20373;-65
2021/11/28 09:38:04;;;;;;;2.33;2.15;;;16.00;71.20;;;;;;4173148;28;20453;-65
2021/11/28 09:40:26;;;;;;;2.38;2.05;;;16.10;71.50;;;;;;4178176;28;20416;-66
2021/11/28 09:42:54;;;;;;;4.10;2.35;;;16.40;70.80;;;;;;4179957;28;20098;-66
2021/11/28 09:45:19;;;;;;;2.30;1.70;;;16.80;69.10;;;;;;4173591;28;20049;-64
2021/11/28 09:47:44;;;;;;;2.30;1.98;;;17.30;66.80;;;;;;4172715;28;20072;-65
2021/11/28 09:50:08;;;;;;;2.42;2.20;;;17.90;64.80;;;;;;4172831;28;20045;-66
2021/11/28 09:52:31;;;;;;;2.20;1.95;;;18.50;62.60;;;;;;4173272;28;20563;-66
2021/11/28 09:54:57;;;;;;;1.90;1.70;;;19.10;60.40;;;;;;4172681;28;20449;-67
2021/11/28 09:57:21;;;;;;;1.95;1.77;;;19.60;58.60;;;;;;4172343;28;20081;-66
2021/11/28 09:59:45;;;;;;;2.45;1.60;;;20.10;57.40;;;;;;4186129;28;20117;-66
2021/11/28 10:02:11;;;;;;;2.53;1.60;;;20.40;56.50;;;;;;4172898;28;20053;-66
2021/11/28 10:04:34;;;;;;;2.95;1.50;;;20.60;55.80;;;;;;4173035;28;20049;-66
2021/11/28 10:06:56;;;;;;;1.13;1.08;;;20.70;55.50;;;;;;4177431;28;20437;-66
2021/11/28 10:09:18;;;;;;;1.90;1.80;;;20.60;55.50;;;;;;4188205;28;20063;-66
2021/11/28 10:12:18;;;;;;;2.97;1.35;;;20.50;55.70;;;;;;4188864;28;20045;-66
2021/11/28 10:14:42;;;;;;;1.20;1.20;;;20.30;56.00;;;;;;4177808;28;20044;-65
2021/11/28 10:17:05;;;;;;;1.75;1.10;;;20.10;56.70;;;;;;4172690;28;20045;-64
2021/11/28 10:19:32;;;;;;;1.80;1.30;;;19.90;57.30;;;;;;4182754;28;20446;-64
2021/11/28 10:21:54;;;;;;;1.10;1.10;;;19.70;57.80;;;;;;4173123;28;20080;-64
2021/11/28 10:24:17;;;;;;;2.40;1.30;;;19.70;58.10;;;;;;4173338;28;20041;-66
2021/11/28 10:26:53;;;;;;;0.70;0.70;;;19.70;58.20;;;;;;4187790;28;20051;-65
2021/11/28 10:29:16;;;;;;;4.13;0.70;;;19.60;58.10;;;;;;4175133;28;20107;-65
2021/11/28 10:31:48;;;;;;;1.02;1.02;;;19.60;58.80;;;;;;4168632;28;20049;-66
2021/11/28 10:34:16;;;;;;;0.50;0.50;;;19.70;58.00;;;;;;4172151;28;20052;-65
2021/11/28 10:36:40;;;;;;;1.17;0.80;;;19.70;58.00;;;;;;4170863;28;20141;-65
2021/11/28 10:39:13;;;;;;;0.90;0.60;;;19.70;58.00;;;;;;4175037;28;20048;-66
2021/11/28 10:41:35;;;;;;;1.02;0.40;;;19.70;57.90;;;;;;4172597;28;20055;-66
2021/11/28 10:43:58;;;;;;;0.22;0.22;;;19.70;57.80;;;;;;4177731;28;20482;-65
2021/11/28 10:46:26;;;;;;;0.20;0.20;;;19.70;57.70;;;;;;4176356;28;20037;-66
2021/11/28 10:49:03;;;;;;;0.65;0.43;;;19.70;57.60;;;;;;4172838;28;20081;-65
2021/11/28 10:51:26;;;;;;;1.35;0.30;;;19.60;57.60;;;;;;4177773;28;20131;-65
2021/11/28 10:53:50;;;;;;;0.30;0.30;;;19.60;57.70;;;;;;4175879;28;20048;-65
2021/11/28 10:56:15;;;;;;;0.35;0.30;;;19.60;57.90;;;;;;4188034;28;20053;-66
2021/11/28 10:58:38;;;;;;;0.20;0.20;;;19.60;58.20;;;;;;4173780;28;20045;-64
2021/11/28 11:01:06;;;;;;;0.20;0.20;;;19.60;58.50;;;;;;4173386;28;20061;-65
2021/11/28 11:03:31;;;;;;;0.32;0.20;;;19.70;58.70;;;;;;4173492;28;20107;-65
2021/11/28 11:05:57;;;;;;;0.55;0.30;;;19.80;58.70;;;;;;4172496;28;20067;-65
2021/11/28 11:08:26;;;;;;;0.70;0.20;;;19.80;58.70;;;;;;4171869;28;20064;-65
2021/11/28 11:10:51;;;;;;;2.40;0.40;;;19.90;58.60;;;;;;4156873;28;20046;-65
2021/11/28 11:13:14;;;;;;;0.57;0.30;;;19.90;58.70;;;;;;4178466;28;20058;-65
2021/11/28 11:15:39;;;;;;;1.35;0.30;;;19.90;58.70;;;;;;4188205;28;20511;-65
2021/11/28 11:18:04;;;;;;;1.27;0.45;;;19.90;58.90;;;;;;4177195;28;20053;-65
2021/11/28 11:20:26;;;;;;;0.57;0.30;;;19.80;59.20;;;;;;4171976;28;20045;-65
2021/11/28 11:22:49;;;;;;;0.63;0.40;;;19.80;59.00;;;;;;4186570;28;20056;-65
2021/11/28 11:25:17;;;;;;;0.75;0.45;;;19.80;59.10;;;;;;4190735;28;20064;-65
2021/11/28 11:27:44;;;;;;;0.30;0.22;;;19.80;59.20;;;;;;4176853;28;20045;-65
2021/11/28 11:30:10;;;;;;;0.40;0.25;;;19.80;59.20;;;;;;4190758;28;20076;-65
2021/11/28 11:32:43;;;;;;;0.38;0.20;;;19.80;58.40;;;;;;4180457;28;20053;-64
2021/11/28 11:35:09;;;;;;;0.22;0.10;;;19.80;58.90;;;;;;4190977;28;20472;-65
2021/11/28 11:37:32;;;;;;;0.00;0.00;;;19.80;59.30;;;;;;4176703;28;20482;-65
2021/11/28 11:39:57;;;;;;;2.42;0.40;;;19.90;59.10;;;;;;4183436;28;20053;-65
2021/11/28 11:42:22;;;;;;;0.50;0.50;;;19.90;58.90;;;;;;4180801;28;20471;-65
2021/11/28 11:44:47;;;;;;;0.88;0.30;;;20.00;59.00;;;;;;4176014;28;20053;-65
2021/11/28 11:47:10;;;;;;;2.13;0.30;;;20.00;58.00;;;;;;4174870;28;20059;-65
2021/11/28 11:49:34;;;;;;;1.05;0.32;;;20.10;57.50;;;;;;4190545;28;20041;-65
2021/11/28 11:51:58;;;;;;;0.52;0.30;;;20.10;54.20;;;;;;4180697;28;20048;-65
2021/11/28 11:54:22;;;;;;;0.25;0.22;;;20.10;54.60;;;;;;4186055;28;20045;-65
2021/11/28 11:56:47;;;;;;;1.48;0.22;;;20.00;57.00;;;;;;4174786;28;20144;-64
2021/11/28 11:59:20;;;;;;;0.20;0.20;;;20.00;55.40;;;;;;4174770;28;20049;-65
2021/11/28 12:01:45;;;;;;;0.73;0.30;;;20.00;55.90;;;;;;4177476;28;20054;-65
2021/11/28 12:04:07;;;;;;;0.70;0.57;;;20.00;54.60;;;;;;4175919;28;20053;-64
2021/11/28 12:06:46;;;;;;;3.45;0.80;;;19.90;55.40;;;;;;4187470;28;20071;-65
2021/11/28 12:09:23;;;;;;;0.75;0.22;;;19.90;56.80;;;;;;4190290;28;20129;-65
2021/11/28 12:11:55;;;;;;;1.48;0.30;;;19.90;57.30;;;;;;4179923;28;20380;-65
2021/11/28 12:14:18;;;;;;;0.88;0.50;;;20.00;56.20;;;;;;4174433;28;20130;-64
2021/11/28 12:16:41;;;;;;;0.90;0.32;;;20.00;57.80;;;;;;4174557;28;20049;-65
2021/11/28 12:19:05;;;;;;;4.32;1.17;;;20.00;56.90;;;;;;4174880;28;20044;-65
2021/11/28 12:21:44;;;;;;;1.00;0.60;;;20.00;57.80;;;;;;4171885;28;20048;-64
2021/11/28 12:24:09;;;;;;;1.95;1.15;;;20.10;57.50;;;;;;4174834;28;20049;-65
2021/11/28 12:26:48;;;;;;;3.45;1.75;;;20.10;58.10;;;;;;4175159;28;20076;-64
2021/11/28 12:29:39;;;;;;;1.75;0.90;;;20.00;58.20;;;;;;4162529;28;20057;-65
2021/11/28 12:32:16;;;;;;;0.73;0.73;;;19.90;58.50;;;;;;4173761;28;20585;-65
2021/11/28 12:34:45;;;;;;;3.97;1.65;;;19.70;58.80;;;;;;4173964;28;20049;-64
2021/11/28 12:37:19;;;;;;;3.80;0.98;;;19.60;59.40;;;;;;4173592;28;20053;-64